Shelly, Minnesota
Current Conditions -  °F | °C
As of 10:14 AM on Thursday 23 Oct 2014 (Local Time) from KCKN Reporting Station
Clear Clear  
Wind Chill: 44°   Ceiling: Unl
Heat Index: 48°   Visibility: 10mi
Dew Point: 43°   Wind: 9mph
Humidity: 82%   Direction: 190°S
Pressure: 29.89"   Gusts: NA
Location:  47.46°N, 96.82°W
Report Text: KCKN 231514Z AUTO 19008KT 10SM CLR 09/06 A2989 RMK AO2
Loading
Personal Weather Stations






























Interactive Weather Map
Tropical Storm Tracking
New forecast layout! Learn more

10-Day Weather Forecast

Advertisements
Track Severe Weather on mobile